• Join FlightAware (Why Join?)
  • Login
  • US Flag 
03:22PM EST


 

Airport Tracker/Info


-or-


 

Live Flight TrackerFlight Track Log ✈ AAY863 ✈ 09-Feb-2014 ✈ KCID - KPIE

Flight Track Log - Related Links

Times and Time Zones

All times are in EST time to prevent confusion due to time zone crossing. See the AAY863 flight status page for this flight to view local times or setup timezone preferences in your user account.

Time Position Orientation Groundspeed Altitude Reporting Facility
EST Latitude Longitude Course Direction KTS MPH feet Rate Location/Type
07:51PM 41.8542 -91.7878 143° Southeast 238 274 4,000  Level Chicago Center
07:52PM 41.7822 -91.7556 162° South 292 336 7,600 3,300 Climbing Chicago Center
07:53PM 41.6897 -91.7053 158° South 301 346 10,900 2,220 Climbing Chicago Center
07:55PM 41.4897 -91.5767 154° Southeast 441 507 14,600 1,920 Climbing Chicago Center
07:56PM 40.8638 -90.8471 143° Southeast  Level FlightAware Approximate
07:56PM 41.3947 -91.4614 138° Southeast 465 535 16,900  Level Chicago Center
07:57PM 41.2956 -91.3433 138° Southeast 478 550 18,600 1,860 Climbing Chicago Center
07:59PM 41.1953 -91.2236 138° Southeast  Level FlightAware Approximate
07:59PM 41.0619 -91.0717 138° Southeast 515 593 22,700  Level Chicago Center
08:01PM 40.8364 -90.8089 139° Southeast 541 623 25,700 1,380 Climbing Chicago Center
08:02PM 40.7200 -90.6747 139° Southeast 551 634 27,000 1,320 Climbing Chicago Center
08:03PM 40.6025 -90.5383 139° Southeast 561 646 28,500 1,800 Climbing Chicago Center
08:04PM 40.4642 -90.3786 139° Southeast 558 642 30,800 1,680 Climbing Chicago Center
08:05PM 40.3508 -90.2506 139° Southeast 548 631 32,000 1,020 Climbing Chicago Center
08:06PM 40.2369 -90.1217 139° Southeast 546 628 33,000 420 Climbing Chicago Center
08:08PM 40.0997 -89.9678 139° Southeast 545 627 33,000  Level Kansas City Center
08:09PM 39.9839 -89.8375 139° Southeast 551 634 33,000  Level Kansas City Center
08:10PM 39.8678 -89.7083 139° Southeast 550 633 33,000  Level Kansas City Center
08:11PM 39.7497 -89.5811 140° Southeast 552 635 33,000  Level Kansas City Center
08:12PM 39.6253 -89.4556 142° Southeast 551 634 33,000  Level Kansas City Center
08:14PM 39.4025 -89.2267 142° Southeast 542 624 33,000  Level Indianapolis Center
08:15PM 39.2739 -89.0958 142° Southeast 543 625 33,000  Level Chicago Center
08:16PM 39.1550 -88.9742 142° Southeast 545 627 33,000  Level Chicago Center
08:17PM 39.0169 -88.8386 143° Southeast 546 628 33,000  Level Indianapolis Center
08:18PM 38.8994 -88.7181 141° Southeast 542 624 33,000  Level Indianapolis Center
08:19PM 38.7819 -88.6003 142° Southeast 537 618 33,000  Level Indianapolis Center
08:20PM 38.6614 -88.4817 142° Southeast 541 623 33,000  Level Indianapolis Center
08:21PM 38.5425 -88.3622 142° Southeast 542 624 33,000  Level Indianapolis Center
08:22PM 38.4242 -88.2458 142° Southeast 540 621 33,000  Level Indianapolis Center
08:24PM 38.1833 -88.0106 142° Southeast 541 623 33,000  Level Memphis Center
08:25PM 38.0661 -87.8969 143° Southeast 541 623 33,000  Level Indianapolis Center
08:26PM 37.9475 -87.7819 143° Southeast 540 621 33,000  Level Indianapolis Center
08:28PM 37.6803 -87.6117 153° Southeast 519 597 33,000  Level Memphis Center
08:29PM 37.5489 -87.5300 154° Southeast 520 598 33,000  Level Memphis Center
08:30PM 37.4153 -87.4497 154° Southeast 523 602 33,000  Level Memphis Center
08:31PM 37.2831 -87.3692 154° Southeast 524 603 33,000  Level Memphis Center
08:32PM 37.1503 -87.2889 154° Southeast 524 603 33,000  Level Memphis Center
08:33PM 37.0192 -87.2083 154° Southeast 521 600 33,000  Level Memphis Center
08:34PM 36.8889 -87.1289 154° Southeast 517 595 33,000  Level Memphis Center
08:35PM 36.7583 -87.0506 154° Southeast 516 594 33,000  Level Memphis Center
08:36PM 36.6064 -86.9597 154° Southeast 514 592 33,000  Level Memphis Center
08:37PM 36.4764 -86.8825 154° Southeast 512 589 33,000  Level Memphis Center
08:38PM 36.3675 -86.8192 155° Southeast 510 587 33,000  Level Memphis Center
08:39PM 36.2314 -86.7378 154° Southeast 509 586 33,000  Level Memphis Center
08:40PM 36.1025 -86.6636 155° Southeast 506 582 33,000  Level Memphis Center
08:41PM 35.9717 -86.5994 158° South 500 575 33,000  Level Memphis Center
08:42PM 35.8181 -86.5217 158° South 505 581 33,000  Level Memphis Center
08:43PM 35.6850 -86.4556 158° South 509 586 33,000  Level Memphis Center
08:44PM 35.5533 -86.3917 158° South 505 581 33,000  Level Memphis Center
08:45PM 35.4444 -86.3356 157° South 504 580 33,000  Level Atlanta Center
08:46PM 35.3119 -86.2733 159° South 510 587 33,000  Level Atlanta Center
08:47PM 35.1917 -86.2319 164° South 503 579 33,000  Level Atlanta Center
08:48PM 35.0483 -86.2028 171° South 490 564 33,000  Level Atlanta Center
08:49PM 34.9150 -86.1944 177° South 485 558 33,000  Level Atlanta Center
08:50PM 34.7839 -86.1631 169° South 480 552 33,000  Level Atlanta Center
08:51PM 34.6492 -86.1067 161° South 487 560 33,000  Level Atlanta Center
08:52PM 34.5147 -86.0456 159° South 494 568 33,000  Level Atlanta Center
08:53PM 34.3819 -85.9869 160° South 500 575 33,000  Level Atlanta Center
08:54PM 34.2514 -85.9286 160° South 505 581 33,000  Level Atlanta Center
08:55PM 34.1167 -85.8681 160° South 505 581 33,000  Level Atlanta Center
08:56PM 33.9839 -85.8125 161° South 505 581 33,000  Level Atlanta Center
08:59PM 33.6042 -85.6500 161° South 511 588 33,000  Level Atlanta Center
09:00PM 33.4672 -85.5928 161° South 511 588 33,000  Level Atlanta Center
09:01PM 33.3364 -85.5381 161° South 511 588 33,000  Level Atlanta Center
09:02PM 33.2119 -85.4764 157° South 517 595 33,000  Level Atlanta Center
09:03PM 33.0664 -85.4194 162° South 511 588 33,000  Level Atlanta Center
09:04PM 32.9231 -85.3528 159° South 511 588 33,000  Level Atlanta Center
09:05PM 32.9794 -85.3425 161° South  Level FlightAware Approximate
09:05PM 32.7900 -85.2967 160° South 505 581 33,000  Level Atlanta Center
09:06PM 32.6531 -85.2378 160° South 502 578 33,000  Level Atlanta Center
09:07PM 32.5261 -85.1844 160° South 508 585 33,000  Level Atlanta Center
09:08PM 32.3931 -85.1286 160° South 501 577 33,000  Level Atlanta Center
09:09PM 32.2600 -85.0753 161° South 506 582 33,000  Level Atlanta Center
09:11PM 32.0283 -84.9756 160° South 497 572 33,000  Level Jacksonville Center
09:12PM 31.8978 -84.9211 161° South 497 572 33,000  Level Jacksonville Center
09:13PM 31.7836 -84.8772 162° South 497 572 33,000  Level Jacksonville Center
09:14PM 31.6550 -84.8206 159° South 497 572 33,000  Level Jacksonville Center
09:15PM 31.5283 -84.7694 161° South 497 572 33,000  Level Jacksonville Center
09:16PM 31.4019 -84.7133 159° South 491 565 33,000  Level Jacksonville Center
09:17PM 31.2817 -84.6478 155° Southeast 485 558 33,000  Level Jacksonville Center
09:18PM 31.1594 -84.5800 155° Southeast 485 558 33,000  Level Jacksonville Center
09:19PM 31.0392 -84.5097 153° Southeast 480 552 33,000  Level Jacksonville Center
09:20PM 30.9169 -84.4447 155° Southeast 480 552 33,000  Level Jacksonville Center
09:21PM 30.7967 -84.3750 154° Southeast 480 552 33,000  Level Jacksonville Center
09:22PM 30.6761 -84.3081 154° Southeast 480 552 33,000 -60 Level Jacksonville Center
09:23PM 30.5392 -84.2311 154° Southeast 486 559 32,900 -60 Descending Jacksonville Center
09:24PM 30.4356 -84.1744 155° Southeast 481 554 32,900  Level Jacksonville Center
09:25PM 30.3108 -84.1053 154° Southeast 481 554 33,000  Climbing Jacksonville Center
09:26PM 30.1903 -84.0364 154° Southeast 481 554 32,900  Descending Jacksonville Center
09:27PM 30.0678 -83.9703 155° Southeast 481 554 33,000  Climbing Jacksonville Center
09:28PM 29.9494 -83.9067 155° Southeast 481 554 32,900 -60 Descending Jacksonville Center
09:29PM 29.8267 -83.8383 154° Southeast 481 554 32,900  Level Jacksonville Center
09:30PM 29.7039 -83.7725 155° Southeast 481 554 33,000 -540 Climbing Jacksonville Center
09:31PM 29.5833 -83.7044 154° Southeast 481 554 31,900 -1,500 Descending Jacksonville Center
09:32PM 29.4606 -83.6392 155° Southeast 481 554 30,000 -1,980 Descending Jacksonville Center
09:33PM 29.3397 -83.5739 155° Southeast 481 554 28,000 -2,100 Descending Jacksonville Center
09:34PM 29.2169 -83.5064 154° Southeast 481 554 25,800 -1,920 Descending Jacksonville Center
09:35PM 29.0983 -83.4319 151° Southeast 481 554 24,200 -960 Descending Jacksonville Center
09:36PM 28.9858 -83.3603 151° Southeast 475 547 23,900 -1,320 Descending Jacksonville Center
09:37PM 28.8694 -83.2861 151° Southeast 470 541 21,600 -2,460 Descending Jacksonville Center
09:39PM 28.6333 -83.1333 150° Southeast 457 526 16,800 -2,340 Descending Tampa TRACON
09:40PM 28.5333 -83.0667 150° Southeast 424 488 14,700 -2,100 Descending Tampa TRACON
09:41PM 28.4333 -83.0167 156° South 401 461 12,600 -1,860 Descending Tampa TRACON
09:42PM 28.3333 -82.9500 150° Southeast 380 437 11,000 -1,200 Descending Tampa TRACON
09:43PM 28.2500 -82.9167 161° South 318 366 10,300 -1,200 Descending Tampa TRACON
09:44PM 28.1833 -82.8667 147° Southeast 300 345 8,700 -1,440 Descending Tampa TRACON
09:45PM 28.1000 -82.8500 170° South 288 331 7,500 -1,320 Descending Tampa TRACON
09:46PM 28.0333 -82.8333 168° South 276 318 6,200 -1,500 Descending Tampa TRACON
09:47PM 27.9667 -82.8167 168° South 266 306 4,700 -1,560 Descending Tampa TRACON
09:48PM 27.9000 -82.7833 156° South 223 257 3,100 -1,080 Descending Tampa TRACON
09:49PM 27.8333 -82.7833 180° South 168 193 2,500 -600 Descending Tampa TRACON
09:50PM 27.8167 -82.7333 111° Southeast 148 170 1,900 -540 Descending Tampa TRACON
09:51PM 27.8333 -82.7000 61° Northeast 140 161 1,500 -600 Descending Tampa TRACON
09:52PM 27.8667 -82.6833 24° Northeast 129 148 700 -840 Descending Tampa TRACON